Penwell, Texas
Current Conditions -  °F | °C
As of 2:53 AM on Monday 24 Nov 2014 (Local Time) from KODO Reporting Station
Clear Clear  
Wind Chill: 31°   Ceiling: Unl
Heat Index: 36°   Visibility: 10mi
Dew Point: 26°   Wind: 6mph
Humidity: 67%   Direction: 280°W
Pressure: 30.05"   Gusts: NA
Location:  31.74°N, 102.59°W
Report Text: KODO 240853Z AUTO 28005KT 10SM CLR 02/M03 A3005 RMK AO2 SLP152 T00221033 53012
Loading
Personal Weather Stations






























Interactive Weather Map New forecast layout! Learn more

10-Day Weather Forecast

Advertisements
Track Severe Weather on mobile